Time;durP1;ratioP1;P1;durP2;ratioP2;P2;SDS_P1;SDS_P2;PMS_P1;PMS_P2;Temp;Humidity;BMP_temperature;BMP_pressure;BME280_temperature;BME280_humidity;BME280_pressure;Samples;Min_cycle;Max_cycle;Signal;HPM_P1;HPM_P2
2022/03/29 00:00:51;;;;;;;15.33;10.30;;;5.00;99.90;;;;;;4973566;28;20649;-79
2022/03/29 00:03:17;;;;;;;15.13;10.17;;;5.00;99.90;;;;;;4957670;28;20239;-76
2022/03/29 00:05:42;;;;;;;12.60;8.53;;;5.10;99.90;;;;;;4957634;28;20196;-79
2022/03/29 00:08:08;;;;;;;16.80;9.97;;;5.20;99.90;;;;;;4956633;28;20188;-79
2022/03/29 00:10:35;;;;;;;15.27;9.90;;;5.20;99.90;;;;;;4958041;28;20176;-77
2022/03/29 00:13:01;;;;;;;16.17;10.13;;;5.30;99.90;;;;;;4957780;28;20211;-78
2022/03/29 00:15:28;;;;;;;17.40;9.53;;;5.30;99.90;;;;;;4957698;28;20189;-77
2022/03/29 00:17:54;;;;;;;14.07;9.50;;;5.30;99.90;;;;;;4954967;28;20181;-78
2022/03/29 00:20:22;;;;;;;15.10;10.37;;;5.30;99.90;;;;;;4972351;28;20184;-79
2022/03/29 00:22:48;;;;;;;16.17;10.73;;;5.40;99.90;;;;;;4956150;28;20223;-79
2022/03/29 00:25:14;;;;;;;13.53;9.40;;;5.40;99.90;;;;;;4958469;28;20185;-78
2022/03/29 00:27:40;;;;;;;14.77;9.57;;;5.50;99.90;;;;;;4972864;28;20191;-78
2022/03/29 00:30:09;;;;;;;15.13;9.73;;;5.50;99.90;;;;;;4973065;28;20181;-78
2022/03/29 00:32:34;;;;;;;15.63;10.37;;;5.50;99.90;;;;;;4955732;28;20205;-80
2022/03/29 00:35:01;;;;;;;17.17;10.97;;;5.50;99.90;;;;;;4960600;28;20196;-79
2022/03/29 00:37:26;;;;;;;15.90;10.37;;;5.60;99.90;;;;;;4977263;28;20215;-78
2022/03/29 00:39:52;;;;;;;16.53;10.57;;;5.60;99.90;;;;;;4958829;28;20267;-78
2022/03/29 00:42:18;;;;;;;15.97;11.10;;;5.60;99.90;;;;;;4958438;28;20236;-77
2022/03/29 00:44:43;;;;;;;15.10;10.23;;;5.60;99.90;;;;;;4978098;28;20625;-79
2022/03/29 00:47:09;;;;;;;15.70;10.83;;;5.60;99.90;;;;;;4959804;28;20188;-78
2022/03/29 00:49:35;;;;;;;17.07;11.67;;;5.70;99.90;;;;;;4959698;28;20233;-77
2022/03/29 00:52:03;;;;;;;15.90;10.73;;;5.70;99.90;;;;;;4976457;28;20223;-77
2022/03/29 00:54:32;;;;;;;14.63;9.47;;;5.80;99.90;;;;;;4961448;28;20246;-78
2022/03/29 00:56:59;;;;;;;15.87;10.67;;;5.80;99.90;;;;;;4976189;28;20294;-79
2022/03/29 00:59:25;;;;;;;15.27;10.73;;;5.90;99.90;;;;;;4959914;28;20208;-78
2022/03/29 01:01:52;;;;;;;15.53;10.33;;;6.00;99.90;;;;;;4977109;28;20217;-78
2022/03/29 01:04:17;;;;;;;17.60;11.43;;;6.00;99.90;;;;;;4977647;28;20726;-79
2022/03/29 01:06:44;;;;;;;16.33;10.43;;;6.00;99.90;;;;;;4977394;28;20184;-79
2022/03/29 01:09:11;;;;;;;14.70;10.50;;;6.00;99.90;;;;;;4960233;28;20196;-79
2022/03/29 01:11:41;;;;;;;15.33;10.70;;;6.20;99.90;;;;;;4959978;28;20189;-79
2022/03/29 01:14:07;;;;;;;15.40;10.73;;;6.20;99.90;;;;;;4968594;28;20288;-77
2022/03/29 01:19:19;;;;;;;15.80;10.70;;;6.20;99.90;;;;;;4977486;28;20207;-78
2022/03/29 01:21:58;;;;;;;17.70;10.70;;;6.20;99.90;;;;;;4976528;28;20274;-77
2022/03/29 01:24:25;;;;;;;16.03;10.67;;;6.20;99.90;;;;;;4960469;28;20191;-78
2022/03/29 01:26:52;;;;;;;17.03;11.07;;;6.20;99.90;;;;;;4976252;28;20201;-76
2022/03/29 01:29:18;;;;;;;14.50;10.40;;;6.20;99.90;;;;;;4977673;28;20227;-79
2022/03/29 01:31:44;;;;;;;16.53;11.30;;;6.20;99.90;;;;;;4977219;28;20215;-78
2022/03/29 01:34:10;;;;;;;14.80;10.87;;;6.20;99.90;;;;;;4977031;28;20189;-78
2022/03/29 01:36:36;;;;;;;17.57;11.00;;;6.20;99.90;;;;;;4976379;28;20203;-78
2022/03/29 01:39:03;;;;;;;16.97;10.97;;;6.20;99.90;;;;;;4977986;28;20542;-78
2022/03/29 01:41:29;;;;;;;20.20;12.13;;;6.20;99.90;;;;;;4960379;28;20185;-81
2022/03/29 01:43:54;;;;;;;16.23;10.80;;;6.20;99.90;;;;;;4961955;28;20672;-78
2022/03/29 01:46:20;;;;;;;17.87;11.63;;;6.20;99.90;;;;;;4959914;28;20184;-79
2022/03/29 01:48:45;;;;;;;17.97;11.67;;;6.20;99.90;;;;;;4978064;28;20689;-77
2022/03/29 01:51:12;;;;;;;18.83;11.57;;;6.10;99.90;;;;;;4973682;28;20630;-77
2022/03/29 01:53:39;;;;;;;19.57;12.53;;;6.10;99.90;;;;;;4976518;28;20215;-79
2022/03/29 01:56:05;;;;;;;16.10;10.93;;;6.20;99.90;;;;;;4978319;28;20208;-77
2022/03/29 01:58:31;;;;;;;19.97;12.90;;;6.10;99.90;;;;;;4975694;28;20188;-78
2022/03/29 02:00:57;;;;;;;19.17;12.37;;;6.20;99.90;;;;;;4957934;28;20184;-78
2022/03/29 02:03:22;;;;;;;20.27;13.43;;;6.20;99.90;;;;;;4960369;28;20201;-77
2022/03/29 02:05:49;;;;;;;16.50;11.73;;;6.20;99.90;;;;;;4977761;28;20231;-78
2022/03/29 02:08:16;;;;;;;18.17;12.43;;;6.30;99.90;;;;;;4976758;28;20185;-78
2022/03/29 02:10:42;;;;;;;20.07;12.37;;;6.20;99.90;;;;;;4975111;28;20844;-79
2022/03/29 02:13:11;;;;;;;19.10;12.10;;;6.30;99.90;;;;;;4960781;28;20216;-77
2022/03/29 02:15:38;;;;;;;18.70;12.27;;;6.20;99.90;;;;;;4957370;28;20184;-79
2022/03/29 02:18:05;;;;;;;18.97;12.97;;;6.20;99.90;;;;;;4975425;28;20229;-78
2022/03/29 02:20:30;;;;;;;18.10;12.20;;;6.20;99.90;;;;;;4957496;28;20188;-78
2022/03/29 02:23:06;;;;;;;17.40;11.47;;;6.30;99.90;;;;;;4960290;28;20209;-78
2022/03/29 02:25:32;;;;;;;21.17;12.93;;;6.20;99.90;;;;;;4959413;28;20180;-79
2022/03/29 02:27:58;;;;;;;17.43;13.20;;;6.30;99.90;;;;;;4975107;28;20185;-76
2022/03/29 02:30:23;;;;;;;21.17;12.33;;;6.30;99.90;;;;;;4976746;28;20187;-78
2022/03/29 02:32:49;;;;;;;21.63;12.93;;;6.20;99.90;;;;;;4957185;28;20266;-79
2022/03/29 02:35:14;;;;;;;17.87;12.03;;;6.30;99.90;;;;;;4957955;28;20227;-77
2022/03/29 02:37:40;;;;;;;20.97;12.90;;;6.20;99.90;;;;;;4975161;28;20208;-78
2022/03/29 02:40:07;;;;;;;21.53;12.97;;;6.20;99.90;;;;;;4975635;28;20181;-79
2022/03/29 02:42:39;;;;;;;19.73;12.73;;;6.20;99.90;;;;;;4965603;28;20201;-77
2022/03/29 02:45:05;;;;;;;18.57;12.40;;;6.30;99.90;;;;;;4973514;28;20621;-78
2022/03/29 02:47:31;;;;;;;19.33;13.07;;;6.20;99.90;;;;;;4958413;28;20206;-77
2022/03/29 02:49:56;;;;;;;18.30;13.13;;;6.30;99.90;;;;;;4975828;28;21275;-78
2022/03/29 02:52:22;;;;;;;19.23;12.20;;;6.20;99.90;;;;;;4955526;28;20638;-77
2022/03/29 02:54:47;;;;;;;20.53;12.47;;;6.30;99.90;;;;;;4969366;28;20196;-77
2022/03/29 02:57:13;;;;;;;19.13;11.73;;;6.30;99.90;;;;;;4957738;28;20562;-78
2022/03/29 02:59:39;;;;;;;22.07;12.97;;;6.20;99.90;;;;;;4974551;28;20633;-78
2022/03/29 03:02:05;;;;;;;20.50;13.27;;;6.20;99.90;;;;;;4972895;28;20200;-78
2022/03/29 03:04:31;;;;;;;23.20;13.60;;;6.10;99.90;;;;;;4967623;28;20256;-83
2022/03/29 03:06:56;;;;;;;20.23;13.07;;;6.10;99.90;;;;;;4954216;28;20287;-85
2022/03/29 03:09:22;;;;;;;19.93;12.57;;;6.10;99.90;;;;;;4954204;28;20576;-85
2022/03/29 03:11:48;;;;;;;21.63;13.57;;;6.20;99.90;;;;;;4959183;28;20652;-85
2022/03/29 03:14:13;;;;;;;19.70;13.00;;;6.20;99.90;;;;;;4948703;28;20195;-79
2022/03/29 03:16:39;;;;;;;20.30;12.73;;;6.20;99.90;;;;;;4966799;28;20268;-79
2022/03/29 03:19:05;;;;;;;19.63;12.97;;;6.20;99.90;;;;;;4969977;28;20255;-79
2022/03/29 03:21:30;;;;;;;18.90;12.97;;;6.20;99.90;;;;;;4968626;28;20519;-80
2022/03/29 03:23:56;;;;;;;20.83;13.17;;;6.20;99.90;;;;;;4953799;28;20245;-79
2022/03/29 03:26:22;;;;;;;20.57;13.10;;;6.20;99.90;;;;;;4970595;28;20220;-80
2022/03/29 03:28:47;;;;;;;19.10;12.70;;;6.30;99.90;;;;;;4950079;28;20579;-81
2022/03/29 03:31:13;;;;;;;20.60;13.20;;;6.20;99.90;;;;;;4957085;28;20248;-79
2022/03/29 03:33:38;;;;;;;20.07;13.27;;;6.20;99.90;;;;;;4974554;28;20242;-78
2022/03/29 03:36:04;;;;;;;22.57;13.67;;;6.20;99.90;;;;;;4971844;28;20717;-77
2022/03/29 03:38:30;;;;;;;20.43;13.63;;;6.10;99.90;;;;;;4975655;28;20611;-77
2022/03/29 03:40:55;;;;;;;20.93;12.53;;;6.20;99.90;;;;;;4962925;28;20279;-77
2022/03/29 03:43:21;;;;;;;19.53;12.77;;;6.20;99.90;;;;;;4977480;28;20270;-79
2022/03/29 03:45:46;;;;;;;21.67;13.60;;;6.30;99.90;;;;;;4971219;28;20646;-77
2022/03/29 03:48:12;;;;;;;21.47;13.83;;;6.20;99.90;;;;;;4958091;28;20189;-77
2022/03/29 03:50:38;;;;;;;18.97;12.83;;;6.20;99.90;;;;;;4966220;28;20569;-79
2022/03/29 03:53:03;;;;;;;22.30;13.60;;;6.20;99.90;;;;;;4951802;28;20227;-77
2022/03/29 03:55:29;;;;;;;21.03;13.17;;;6.20;99.90;;;;;;4952596;28;20196;-79
2022/03/29 03:57:55;;;;;;;21.53;14.10;;;6.20;99.90;;;;;;4952504;28;21302;-76
2022/03/29 04:00:21;;;;;;;24.73;14.07;;;6.10;99.90;;;;;;4966839;28;20180;-77
2022/03/29 04:02:50;;;;;;;22.10;14.20;;;6.10;99.90;;;;;;4947071;28;20701;-77
2022/03/29 04:05:16;;;;;;;22.40;13.43;;;6.10;99.90;;;;;;4971594;28;20185;-77
2022/03/29 04:07:42;;;;;;;21.03;13.67;;;6.10;99.90;;;;;;4965663;28;20185;-77
2022/03/29 04:10:08;;;;;;;21.47;13.53;;;6.10;99.90;;;;;;4958349;28;20195;-77
2022/03/29 04:12:35;;;;;;;21.50;13.47;;;6.10;99.90;;;;;;4950726;28;20240;-77
2022/03/29 04:15:01;;;;;;;22.60;13.43;;;6.10;99.90;;;;;;4950657;28;20192;-77
2022/03/29 04:17:27;;;;;;;20.57;13.27;;;6.10;99.90;;;;;;4954931;28;20197;-76
2022/03/29 04:19:54;;;;;;;20.47;12.50;;;6.10;99.90;;;;;;4950520;28;20245;-76
2022/03/29 04:22:20;;;;;;;21.37;12.97;;;6.10;99.90;;;;;;4951551;28;20252;-75
2022/03/29 04:24:46;;;;;;;22.10;12.97;;;6.10;99.90;;;;;;4945606;28;20180;-78
2022/03/29 04:27:11;;;;;;;19.80;13.00;;;6.10;99.90;;;;;;4951014;28;20652;-77
2022/03/29 04:29:37;;;;;;;19.97;12.17;;;6.20;99.90;;;;;;4963613;28;20185;-77
2022/03/29 04:32:03;;;;;;;19.27;12.53;;;6.20;99.90;;;;;;4948093;28;20206;-78
2022/03/29 04:34:28;;;;;;;21.67;13.60;;;6.20;99.90;;;;;;4955698;28;20699;-80
2022/03/29 04:36:55;;;;;;;19.83;12.27;;;6.20;99.90;;;;;;4972833;28;20216;-77
2022/03/29 04:39:20;;;;;;;20.70;12.60;;;6.20;99.90;;;;;;4958054;28;20191;-77
2022/03/29 04:41:46;;;;;;;19.80;12.67;;;6.10;99.90;;;;;;4945783;28;20197;-77
2022/03/29 04:44:11;;;;;;;18.90;11.03;;;6.10;99.90;;;;;;4950612;28;20270;-77
2022/03/29 04:46:37;;;;;;;16.43;11.63;;;6.10;99.90;;;;;;4945269;28;20192;-77
2022/03/29 04:49:02;;;;;;;19.47;11.27;;;6.20;99.90;;;;;;4973028;28;20189;-77
2022/03/29 04:51:28;;;;;;;18.13;10.77;;;6.20;99.90;;;;;;4949199;28;20189;-77
2022/03/29 04:53:54;;;;;;;21.63;10.93;;;6.20;99.90;;;;;;4967248;28;20685;-76
2022/03/29 04:56:19;;;;;;;16.43;11.20;;;6.20;99.90;;;;;;4945634;28;20208;-78
2022/03/29 04:58:45;;;;;;;18.27;10.60;;;6.30;99.90;;;;;;4952515;28;20423;-76
2022/03/29 05:01:10;;;;;;;21.97;13.10;;;6.30;99.90;;;;;;4953760;28;20212;-77
2022/03/29 05:03:36;;;;;;;18.00;12.03;;;6.20;99.90;;;;;;4970426;28;20287;-77
2022/03/29 05:06:02;;;;;;;21.27;12.80;;;6.20;99.90;;;;;;4969695;28;20196;-79
2022/03/29 05:08:28;;;;;;;19.90;12.63;;;6.20;99.90;;;;;;4968106;28;20230;-77
2022/03/29 05:10:53;;;;;;;17.27;11.67;;;6.30;99.90;;;;;;4968362;28;20185;-77
2022/03/29 05:13:19;;;;;;;16.87;11.13;;;6.20;99.90;;;;;;4946968;28;20706;-78
2022/03/29 05:15:44;;;;;;;18.90;11.67;;;6.20;99.90;;;;;;4967071;28;20238;-77
2022/03/29 05:18:10;;;;;;;21.00;11.23;;;6.20;99.90;;;;;;4953434;28;20216;-78
2022/03/29 05:20:36;;;;;;;21.20;12.67;;;6.20;99.90;;;;;;4953984;28;20220;-77
2022/03/29 05:23:06;;;;;;;17.03;11.47;;;6.20;99.90;;;;;;4958753;28;20219;-77
2022/03/29 05:25:32;;;;;;;19.40;11.40;;;6.20;99.90;;;;;;4968099;28;20248;-77
2022/03/29 05:27:58;;;;;;;19.53;11.80;;;6.30;99.90;;;;;;4972459;28;20199;-77
2022/03/29 05:30:24;;;;;;;20.33;12.37;;;6.20;99.90;;;;;;4953922;28;20231;-76
2022/03/29 05:32:51;;;;;;;18.43;11.97;;;6.30;99.90;;;;;;4966445;28;20274;-77
2022/03/29 05:35:17;;;;;;;19.63;13.00;;;6.30;99.90;;;;;;4952787;28;20193;-77
2022/03/29 05:37:43;;;;;;;20.57;12.70;;;6.30;99.90;;;;;;4974417;28;20208;-78
2022/03/29 05:40:11;;;;;;;22.53;13.27;;;6.30;99.90;;;;;;4976363;28;20192;-76
2022/03/29 05:42:41;;;;;;;20.97;13.17;;;6.30;99.90;;;;;;4971717;28;20674;-78
2022/03/29 05:45:08;;;;;;;20.67;12.80;;;6.20;99.90;;;;;;4969264;28;20670;-77
2022/03/29 05:50:19;;;;;;;20.43;12.90;;;6.30;99.90;;;;;;4976477;28;20279;-77
2022/03/29 05:52:45;;;;;;;18.90;12.87;;;6.30;99.90;;;;;;4959532;28;20236;-78
2022/03/29 05:55:10;;;;;;;19.13;13.00;;;6.30;99.90;;;;;;4960450;28;20192;-76
2022/03/29 05:57:36;;;;;;;20.63;11.17;;;6.30;99.90;;;;;;4975701;28;20216;-76
2022/03/29 06:00:03;;;;;;;22.17;12.60;;;6.40;99.90;;;;;;4976802;28;20241;-77
2022/03/29 06:02:29;;;;;;;17.20;12.07;;;6.30;99.90;;;;;;4977970;28;20211;-76
2022/03/29 06:04:54;;;;;;;20.33;12.70;;;6.40;99.90;;;;;;4977353;28;20181;-78
2022/03/29 06:07:20;;;;;;;18.37;11.73;;;6.40;99.90;;;;;;4975794;28;20193;-77
2022/03/29 06:09:45;;;;;;;18.03;11.13;;;6.40;99.90;;;;;;4958900;28;20193;-76
2022/03/29 06:12:11;;;;;;;19.83;11.83;;;6.50;99.90;;;;;;4976148;28;20311;-77
2022/03/29 06:14:36;;;;;;;16.70;11.00;;;6.50;99.90;;;;;;4976714;28;20189;-79
2022/03/29 06:17:04;;;;;;;16.47;11.13;;;6.60;99.90;;;;;;4958240;28;20209;-78
2022/03/29 06:19:30;;;;;;;19.77;11.50;;;6.60;99.90;;;;;;4976809;28;20181;-76
2022/03/29 06:21:56;;;;;;;17.33;11.03;;;6.60;99.90;;;;;;4977244;28;20237;-76
2022/03/29 06:24:22;;;;;;;18.67;12.13;;;6.70;99.90;;;;;;4958696;28;20219;-77
2022/03/29 06:26:47;;;;;;;20.40;11.93;;;6.70;99.90;;;;;;4976076;28;20205;-77
2022/03/29 06:29:13;;;;;;;19.87;12.30;;;6.80;99.90;;;;;;4966931;28;20228;-77
2022/03/29 06:31:39;;;;;;;18.47;11.30;;;6.70;99.90;;;;;;4973095;28;20609;-77
2022/03/29 06:34:05;;;;;;;19.40;12.40;;;6.70;99.90;;;;;;4976185;28;20192;-76
2022/03/29 06:36:31;;;;;;;21.17;13.00;;;6.70;99.90;;;;;;4958277;28;20215;-77
2022/03/29 06:38:57;;;;;;;20.27;12.30;;;6.60;99.90;;;;;;4975615;28;20292;-76
2022/03/29 06:41:23;;;;;;;18.87;11.77;;;6.70;99.90;;;;;;4976094;28;20291;-76
2022/03/29 06:43:49;;;;;;;19.00;12.43;;;6.70;99.90;;;;;;4958002;28;20288;-77
2022/03/29 06:46:15;;;;;;;21.40;12.70;;;6.60;99.90;;;;;;4975526;28;20200;-77
2022/03/29 06:48:41;;;;;;;23.13;13.73;;;6.70;99.90;;;;;;4976279;28;20181;-77
2022/03/29 06:51:14;;;;;;;17.93;11.43;;;6.70;99.90;;;;;;4975249;28;20679;-82
2022/03/29 06:53:41;;;;;;;19.00;12.07;;;6.80;99.90;;;;;;4974666;28;20225;-76
2022/03/29 06:56:07;;;;;;;21.53;13.27;;;6.80;99.90;;;;;;4974449;28;20227;-78
2022/03/29 06:58:36;;;;;;;21.57;13.13;;;6.80;99.90;;;;;;4972921;28;20184;-76
2022/03/29 07:01:03;;;;;;;21.73;13.13;;;6.90;99.90;;;;;;4973364;28;20642;-77
2022/03/29 07:03:35;;;;;;;25.00;14.57;;;6.90;99.90;;;;;;4975849;28;20236;-76
2022/03/29 07:06:00;;;;;;;21.50;13.30;;;7.00;99.90;;;;;;4958347;28;20189;-79
2022/03/29 07:08:26;;;;;;;21.73;13.77;;;7.00;99.90;;;;;;4975966;28;20195;-77
2022/03/29 07:13:37;;;;;;;24.27;13.20;;;7.00;99.90;;;;;;4975074;28;20334;-77
2022/03/29 07:16:03;;;;;;;21.57;12.47;;;7.10;99.90;;;;;;4961281;28;20216;-79
2022/03/29 07:18:29;;;;;;;22.43;13.57;;;7.20;99.90;;;;;;4959648;28;21470;-79
2022/03/29 07:20:54;;;;;;;23.13;14.43;;;7.10;99.90;;;;;;4977757;28;20392;-79
2022/03/29 07:23:20;;;;;;;23.17;13.60;;;6.90;99.90;;;;;;4961271;28;20297;-79
2022/03/29 07:25:45;;;;;;;26.27;14.83;;;6.70;99.90;;;;;;4958858;28;20185;-77
2022/03/29 07:28:14;;;;;;;24.77;14.97;;;6.80;99.90;;;;;;4978558;28;20221;-78
2022/03/29 07:30:41;;;;;;;25.80;15.67;;;6.80;99.90;;;;;;4959102;28;20192;-79
2022/03/29 07:33:07;;;;;;;25.70;14.87;;;6.90;99.90;;;;;;4976437;28;20223;-78
2022/03/29 07:35:34;;;;;;;24.43;14.57;;;6.90;99.90;;;;;;4959255;28;20182;-78
2022/03/29 07:37:59;;;;;;;24.13;14.63;;;7.00;99.90;;;;;;4959216;28;20754;-76
2022/03/29 07:40:27;;;;;;;25.73;14.80;;;7.10;99.90;;;;;;4975824;28;20192;-76
2022/03/29 07:42:54;;;;;;;24.27;14.53;;;7.30;99.90;;;;;;4956486;28;20303;-78
2022/03/29 07:45:21;;;;;;;24.37;14.60;;;7.30;99.90;;;;;;4959020;28;20185;-77
2022/03/29 07:47:55;;;;;;;22.90;14.63;;;7.20;99.90;;;;;;4976206;28;20181;-79
2022/03/29 07:50:22;;;;;;;26.60;15.23;;;7.10;99.90;;;;;;4959260;28;20185;-77
2022/03/29 07:52:47;;;;;;;23.50;13.97;;;7.20;99.90;;;;;;4957262;28;20228;-78
2022/03/29 07:55:13;;;;;;;23.80;14.73;;;7.30;99.90;;;;;;4959040;28;20658;-77
2022/03/29 07:57:39;;;;;;;22.23;14.63;;;7.40;99.90;;;;;;4958501;28;20216;-76
2022/03/29 08:02:53;;;;;;;24.77;14.57;;;7.50;99.90;;;;;;4972748;28;20290;-78
2022/03/29 08:05:19;;;;;;;22.57;14.13;;;7.50;99.90;;;;;;4960063;28;20276;-78
2022/03/29 08:07:45;;;;;;;24.33;14.63;;;7.50;99.90;;;;;;4976865;28;20287;-77
2022/03/29 08:10:11;;;;;;;24.77;15.27;;;7.60;99.90;;;;;;4977188;28;20295;-80
2022/03/29 08:12:37;;;;;;;25.33;15.87;;;7.70;99.90;;;;;;4977809;28;20874;-77
2022/03/29 08:15:05;;;;;;;24.50;15.23;;;7.70;99.90;;;;;;4977595;28;20188;-78
2022/03/29 08:17:33;;;;;;;25.10;15.73;;;7.80;99.90;;;;;;4958559;28;20261;-77
2022/03/29 08:19:59;;;;;;;25.97;15.73;;;7.50;99.90;;;;;;4958335;28;20220;-78
2022/03/29 08:22:25;;;;;;;22.93;14.33;;;7.50;99.90;;;;;;4965048;28;20208;-77
2022/03/29 08:24:51;;;;;;;26.50;14.97;;;7.60;99.90;;;;;;4958646;28;20176;-77
2022/03/29 08:27:16;;;;;;;22.80;14.00;;;7.70;99.90;;;;;;4958495;28;20196;-79
2022/03/29 08:29:42;;;;;;;23.30;14.73;;;7.80;99.90;;;;;;4974854;28;20237;-77
2022/03/29 08:32:08;;;;;;;25.30;14.67;;;7.80;99.90;;;;;;4974949;28;20212;-78
2022/03/29 08:34:33;;;;;;;24.47;14.20;;;7.90;99.90;;;;;;4956804;28;20192;-77
2022/03/29 08:36:59;;;;;;;23.70;14.33;;;7.80;99.90;;;;;;4958740;28;20689;-78
2022/03/29 08:39:25;;;;;;;25.87;14.27;;;7.90;99.90;;;;;;4976796;28;20192;-77
2022/03/29 08:41:58;;;;;;;24.73;15.10;;;7.90;99.90;;;;;;4957030;28;20371;-79
2022/03/29 08:44:26;;;;;;;23.13;13.73;;;8.00;99.90;;;;;;4974431;28;20949;-83
2022/03/29 08:46:52;;;;;;;22.70;14.50;;;7.90;99.90;;;;;;4955452;28;20193;-81
2022/03/29 08:49:19;;;;;;;27.50;16.37;;;7.90;99.90;;;;;;4954208;28;20673;-78
2022/03/29 08:51:45;;;;;;;23.80;14.57;;;8.10;99.90;;;;;;4972566;28;20748;-83
2022/03/29 08:54:11;;;;;;;24.67;16.07;;;8.10;99.90;;;;;;4964257;28;20193;-79
2022/03/29 08:56:40;;;;;;;22.20;14.23;;;8.20;99.90;;;;;;4958556;28;20205;-77
2022/03/29 08:59:05;;;;;;;24.13;14.47;;;8.30;99.90;;;;;;4958518;28;20527;-77
2022/03/29 09:01:31;;;;;;;22.30;13.63;;;8.40;99.90;;;;;;4955042;28;20869;-78
2022/03/29 09:04:04;;;;;;;28.83;16.87;;;8.40;99.90;;;;;;4965581;28;20187;-77
2022/03/29 09:06:31;;;;;;;20.67;13.90;;;8.50;99.90;;;;;;4975566;28;20181;-76
2022/03/29 09:08:57;;;;;;;25.57;14.43;;;8.60;99.90;;;;;;4975382;28;20184;-77
2022/03/29 09:11:22;;;;;;;22.93;13.90;;;8.70;99.90;;;;;;4974511;28;20253;-77
2022/03/29 09:14:02;;;;;;;23.97;14.00;;;8.70;99.90;;;;;;4957100;28;20208;-76
2022/03/29 09:16:30;;;;;;;24.57;15.30;;;8.70;99.90;;;;;;4967504;28;20254;-77
2022/03/29 09:18:57;;;;;;;26.90;15.27;;;8.70;99.90;;;;;;4958380;28;20195;-78
2022/03/29 09:21:24;;;;;;;26.13;15.27;;;8.60;99.90;;;;;;4974739;28;20227;-77
2022/03/29 09:24:09;;;;;;;25.37;15.37;;;8.70;99.90;;;;;;4959705;28;20984;-76
2022/03/29 09:26:38;;;;;;;30.53;17.00;;;8.70;99.90;;;;;;4974993;28;20259;-77
2022/03/29 09:29:12;;;;;;;23.63;15.10;;;8.80;99.90;;;;;;4959303;28;20185;-77
2022/03/29 09:31:39;;;;;;;28.90;15.97;;;8.90;99.90;;;;;;4971221;28;20620;-78
2022/03/29 09:34:19;;;;;;;26.33;16.37;;;8.90;99.90;;;;;;4977443;28;20272;-76
2022/03/29 09:36:52;;;;;;;30.57;15.70;;;8.80;99.90;;;;;;4975020;28;20295;-78
2022/03/29 09:39:30;;;;;;;31.07;18.40;;;8.90;99.90;;;;;;4975560;28;20176;-76
2022/03/29 09:42:00;;;;;;;26.13;15.80;;;8.90;99.90;;;;;;4972515;28;20662;-77
2022/03/29 09:44:43;;;;;;;24.67;15.63;;;9.00;99.90;;;;;;4976963;28;20176;-76
2022/03/29 09:47:12;;;;;;;23.93;15.03;;;9.20;99.90;;;;;;4973359;28;20537;-76
2022/03/29 09:49:57;;;;;;;32.00;16.30;;;9.40;99.90;;;;;;4956803;28;20236;-78
2022/03/29 09:52:28;;;;;;;25.30;14.73;;;9.30;99.90;;;;;;4954785;28;20220;-78
2022/03/29 09:55:17;;;;;;;28.93;16.80;;;9.40;99.90;;;;;;4969389;28;20185;-77
2022/03/29 09:57:54;;;;;;;29.83;17.63;;;9.60;99.90;;;;;;4953773;28;20596;-78
2022/03/29 10:00:29;;;;;;;24.87;15.43;;;9.50;99.90;;;;;;4963525;28;20184;-77
2022/03/29 10:02:55;;;;;;;29.37;17.90;;;9.40;99.90;;;;;;4963727;28;20235;-77
2022/03/29 10:05:23;;;;;;;49.33;29.40;;;9.50;99.90;;;;;;4957368;28;20227;-78
2022/03/29 10:09:25;;;;;;;25.63;16.40;;;9.80;99.90;;;;;;4957486;28;20219;-77
2022/03/29 10:10:43;;;;;;;28.60;17.27;;;9.90;99.90;;;;;;4973442;28;20200;-77
2022/03/29 10:13:09;;;;;;;27.47;15.93;;;10.00;99.90;;;;;;4973741;28;20205;-77
2022/03/29 10:15:37;;;;;;;24.30;15.43;;;10.00;99.90;;;;;;4975077;28;20688;-77
2022/03/29 10:18:03;;;;;;;27.90;16.60;;;9.90;99.90;;;;;;4956175;28;20212;-78
2022/03/29 10:20:29;;;;;;;22.83;14.50;;;9.70;99.90;;;;;;4956160;28;20196;-76
2022/03/29 10:22:56;;;;;;;24.17;14.70;;;9.70;99.90;;;;;;4958464;28;20239;-77
2022/03/29 10:25:22;;;;;;;22.67;14.97;;;9.60;99.90;;;;;;4957133;28;20321;-79
2022/03/29 10:27:49;;;;;;;25.33;16.17;;;9.80;99.90;;;;;;4978470;28;20180;-77
2022/03/29 10:30:34;;;;;;;24.73;14.90;;;9.90;99.90;;;;;;4975662;28;21040;-77
2022/03/29 10:33:27;;;;;;;24.13;15.03;;;10.00;99.90;;;;;;4971871;28;20208;-78
2022/03/29 10:35:59;;;;;;;21.67;14.67;;;10.10;99.90;;;;;;4960180;28;20196;-83
2022/03/29 10:38:45;;;;;;;22.23;15.20;;;10.10;99.90;;;;;;4958670;28;20649;-77
2022/03/29 10:41:26;;;;;;;23.70;15.33;;;10.40;99.90;;;;;;4973105;28;20189;-77
2022/03/29 10:43:55;;;;;;;25.30;14.43;;;10.70;99.90;;;;;;4956482;28;20272;-77
2022/03/29 10:46:37;;;;;;;24.37;15.57;;;11.00;99.90;;;;;;4972704;28;20185;-77
2022/03/29 10:49:34;;;;;;;23.13;14.80;;;10.90;99.90;;;;;;4974193;28;20185;-77
2022/03/29 10:52:05;;;;;;;25.77;14.93;;;11.00;99.90;;;;;;4973975;28;20272;-77
2022/03/29 10:54:40;;;;;;;24.90;15.00;;;11.30;99.90;;;;;;4974912;28;20823;-77
2022/03/29 10:57:07;;;;;;;26.63;14.03;;;11.30;99.90;;;;;;4974603;28;20207;-77
2022/03/29 10:59:37;;;;;;;24.43;13.70;;;11.20;99.90;;;;;;4958290;28;20189;-77
2022/03/29 11:02:12;;;;;;;23.83;14.63;;;11.30;99.90;;;;;;4957416;28;20212;-78
2022/03/29 11:05:07;;;;;;;22.83;14.80;;;11.30;99.90;;;;;;4975903;28;20586;-77
2022/03/29 11:07:36;;;;;;;22.93;13.30;;;11.20;99.90;;;;;;4974504;28;20173;-78
2022/03/29 11:10:21;;;;;;;27.10;14.87;;;11.40;99.90;;;;;;4952876;28;20192;-77
2022/03/29 11:12:49;;;;;;;23.25;14.70;;;11.30;99.90;;;;;;4957888;28;20279;-78
2022/03/29 11:15:47;;;;;;;19.80;13.37;;;11.80;99.90;;;;;;4972525;28;20189;-77
2022/03/29 11:18:37;;;;;;;20.50;14.00;;;12.30;99.90;;;;;;4974904;28;20260;-78
2022/03/29 11:21:04;;;;;;;21.45;13.95;;;12.60;99.90;;;;;;4976321;28;20208;-78
2022/03/29 11:23:41;;;;;;;27.58;15.32;;;12.40;99.90;;;;;;4975388;28;20212;-78
2022/03/29 11:26:12;;;;;;;22.70;14.55;;;12.30;99.90;;;;;;4974798;28;20253;-78
2022/03/29 11:28:51;;;;;;;22.42;14.65;;;12.50;99.90;;;;;;4971401;28;20688;-79
2022/03/29 11:31:18;;;;;;;21.95;14.07;;;12.50;99.90;;;;;;4952839;28;20649;-78
2022/03/29 11:33:49;;;;;;;22.83;15.38;;;12.20;99.90;;;;;;4972362;28;20208;-80
2022/03/29 11:36:16;;;;;;;22.77;15.57;;;12.00;99.90;;;;;;4975588;28;20203;-78
2022/03/29 11:38:44;;;;;;;21.77;15.25;;;11.40;99.90;;;;;;4976462;28;20176;-79
2022/03/29 11:41:32;;;;;;;19.43;14.67;;;11.50;99.90;;;;;;4973332;28;20220;-78
2022/03/29 11:44:04;;;;;;;21.25;14.75;;;11.60;99.90;;;;;;4955970;28;20185;-79
2022/03/29 11:46:46;;;;;;;24.95;14.32;;;11.70;99.90;;;;;;4973309;28;20227;-77
2022/03/29 11:49:12;;;;;;;22.00;14.35;;;11.70;99.90;;;;;;4974197;28;20227;-79
2022/03/29 11:51:37;;;;;;;22.00;15.00;;;12.10;99.90;;;;;;4972083;28;20332;-79
2022/03/29 11:54:03;;;;;;;25.23;14.50;;;12.20;99.90;;;;;;4974122;28;20222;-80
2022/03/29 11:56:37;;;;;;;22.38;14.70;;;12.40;99.90;;;;;;4968642;28;20208;-77
2022/03/29 11:59:04;;;;;;;22.33;13.75;;;12.30;99.90;;;;;;4960310;28;20178;-78
2022/03/29 12:01:31;;;;;;;22.88;15.27;;;12.40;99.90;;;;;;4970016;28;20189;-78
2022/03/29 12:04:01;;;;;;;22.48;15.07;;;12.30;99.90;;;;;;4971251;28;20180;-79
2022/03/29 12:06:29;;;;;;;22.10;14.07;;;12.30;99.90;;;;;;4970302;28;20295;-78
2022/03/29 12:09:06;;;;;;;23.88;15.23;;;12.20;99.90;;;;;;4955745;28;20559;-79
2022/03/29 12:11:39;;;;;;;23.60;15.18;;;12.10;99.90;;;;;;4953945;28;20225;-78
2022/03/29 12:14:09;;;;;;;24.83;15.23;;;12.10;99.90;;;;;;4971704;28;20195;-80
2022/03/29 12:16:40;;;;;;;24.02;16.17;;;12.20;99.90;;;;;;4952290;28;20204;-79
2022/03/29 12:19:13;;;;;;;24.33;16.48;;;12.50;99.90;;;;;;4951246;28;20204;-79
2022/03/29 12:21:42;;;;;;;21.85;15.07;;;12.50;99.90;;;;;;4970015;28;20288;-78
2022/03/29 12:24:10;;;;;;;25.15;16.60;;;12.30;99.90;;;;;;4951955;28;20241;-79
2022/03/29 12:27:06;;;;;;;27.30;16.90;;;12.20;99.90;;;;;;4970232;28;20181;-78
2022/03/29 12:29:39;;;;;;;24.95;17.00;;;12.00;99.90;;;;;;4953118;28;20428;-78
2022/03/29 12:32:05;;;;;;;25.35;15.60;;;11.90;99.90;;;;;;4964670;28;20437;-78
2022/03/29 12:34:32;;;;;;;25.33;16.13;;;12.00;99.90;;;;;;4971105;28;20185;-79
2022/03/29 12:37:01;;;;;;;25.00;16.23;;;12.00;99.90;;;;;;4952875;28;20208;-77
2022/03/29 12:39:39;;;;;;;25.80;16.50;;;11.90;99.90;;;;;;4976278;28;20227;-78
2022/03/29 12:42:10;;;;;;;25.40;15.45;;;12.00;99.90;;;;;;4955743;28;20683;-78
2022/03/29 12:44:44;;;;;;;26.00;16.30;;;12.30;99.90;;;;;;4956433;28;20184;-79
2022/03/29 12:47:11;;;;;;;23.98;16.05;;;12.60;99.90;;;;;;4975111;28;20194;-79
2022/03/29 12:49:38;;;;;;;23.92;16.33;;;12.60;99.90;;;;;;4959408;28;20188;-80
2022/03/29 12:52:06;;;;;;;25.60;16.77;;;12.60;99.90;;;;;;4975021;28;20786;-78